sensor_id;sensor_type;location;lat;lon;timestamp;P1;durP1;ratioP1;P2;durP2;ratioP2
45434;SDS011;31183;47.404;8.500;2023-05-20T00:01:28;9.60;;;8.05;;
45434;SDS011;31183;47.404;8.500;2023-05-20T00:03:55;9.27;;;8.32;;
45434;SDS011;31183;47.404;8.500;2023-05-20T00:06:22;8.90;;;7.80;;
45434;SDS011;31183;47.404;8.500;2023-05-20T00:08:49;8.68;;;7.63;;
45434;SDS011;31183;47.404;8.500;2023-05-20T00:11:16;9.27;;;8.38;;
45434;SDS011;31183;47.404;8.500;2023-05-20T00:13:43;10.45;;;8.63;;
45434;SDS011;31183;47.404;8.500;2023-05-20T00:16:09;9.57;;;8.05;;
45434;SDS011;31183;47.404;8.500;2023-05-20T00:18:36;9.10;;;8.07;;
45434;SDS011;31183;47.404;8.500;2023-05-20T00:21:03;11.10;;;8.68;;
45434;SDS011;31183;47.404;8.500;2023-05-20T00:23:30;10.63;;;9.45;;
45434;SDS011;31183;47.404;8.500;2023-05-20T00:25:56;8.95;;;8.00;;
45434;SDS011;31183;47.404;8.500;2023-05-20T00:28:25;11.40;;;10.10;;
45434;SDS011;31183;47.404;8.500;2023-05-20T00:30:53;12.95;;;9.93;;
45434;SDS011;31183;47.404;8.500;2023-05-20T00:33:19;10.05;;;9.05;;
45434;SDS011;31183;47.404;8.500;2023-05-20T00:35:46;10.70;;;8.63;;
45434;SDS011;31183;47.404;8.500;2023-05-20T00:38:13;12.77;;;9.18;;
45434;SDS011;31183;47.404;8.500;2023-05-20T00:40:39;13.00;;;9.55;;
45434;SDS011;31183;47.404;8.500;2023-05-20T00:43:06;11.20;;;8.50;;
45434;SDS011;31183;47.404;8.500;2023-05-20T00:45:33;12.35;;;8.93;;
45434;SDS011;31183;47.404;8.500;2023-05-20T00:48:00;11.40;;;8.80;;
45434;SDS011;31183;47.404;8.500;2023-05-20T00:50:29;9.88;;;8.52;;
45434;SDS011;31183;47.404;8.500;2023-05-20T00:52:56;9.30;;;7.88;;
45434;SDS011;31183;47.404;8.500;2023-05-20T00:55:24;11.15;;;8.88;;
45434;SDS011;31183;47.404;8.500;2023-05-20T00:57:51;10.13;;;8.25;;
45434;SDS011;31183;47.404;8.500;2023-05-20T01:00:18;10.00;;;7.82;;
45434;SDS011;31183;47.404;8.500;2023-05-20T01:02:45;10.93;;;9.68;;
45434;SDS011;31183;47.404;8.500;2023-05-20T01:05:12;10.07;;;7.97;;
45434;SDS011;31183;47.404;8.500;2023-05-20T01:07:38;9.90;;;8.90;;
45434;SDS011;31183;47.404;8.500;2023-05-20T01:10:06;10.10;;;8.60;;
45434;SDS011;31183;47.404;8.500;2023-05-20T01:12:36;9.35;;;8.43;;
45434;SDS011;31183;47.404;8.500;2023-05-20T01:15:07;9.93;;;8.98;;
45434;SDS011;31183;47.404;8.500;2023-05-20T01:17:45;11.98;;;8.02;;
45434;SDS011;31183;47.404;8.500;2023-05-20T01:20:14;9.75;;;8.43;;
45434;SDS011;31183;47.404;8.500;2023-05-20T01:22:47;12.13;;;9.32;;
45434;SDS011;31183;47.404;8.500;2023-05-20T01:25:17;12.07;;;9.65;;
45434;SDS011;31183;47.404;8.500;2023-05-20T01:27:44;12.85;;;9.15;;
45434;SDS011;31183;47.404;8.500;2023-05-20T01:30:12;12.23;;;10.20;;
45434;SDS011;31183;47.404;8.500;2023-05-20T01:32:42;13.65;;;9.57;;
45434;SDS011;31183;47.404;8.500;2023-05-20T01:35:15;12.10;;;9.43;;
45434;SDS011;31183;47.404;8.500;2023-05-20T01:37:42;13.05;;;10.35;;
45434;SDS011;31183;47.404;8.500;2023-05-20T01:40:10;10.48;;;9.40;;
45434;SDS011;31183;47.404;8.500;2023-05-20T01:42:41;12.88;;;10.90;;
45434;SDS011;31183;47.404;8.500;2023-05-20T01:45:09;13.73;;;9.73;;
45434;SDS011;31183;47.404;8.500;2023-05-20T01:47:35;10.30;;;9.27;;
45434;SDS011;31183;47.404;8.500;2023-05-20T01:50:02;12.30;;;9.55;;
45434;SDS011;31183;47.404;8.500;2023-05-20T01:52:29;11.40;;;9.43;;
45434;SDS011;31183;47.404;8.500;2023-05-20T01:54:56;13.55;;;10.80;;
45434;SDS011;31183;47.404;8.500;2023-05-20T01:57:23;13.15;;;10.55;;
45434;SDS011;31183;47.404;8.500;2023-05-20T01:59:50;11.30;;;9.30;;
45434;SDS011;31183;47.404;8.500;2023-05-20T02:02:16;9.38;;;8.48;;
45434;SDS011;31183;47.404;8.500;2023-05-20T02:04:47;12.05;;;8.45;;
45434;SDS011;31183;47.404;8.500;2023-05-20T02:07:15;10.98;;;9.23;;
45434;SDS011;31183;47.404;8.500;2023-05-20T02:09:44;11.30;;;9.05;;
45434;SDS011;31183;47.404;8.500;2023-05-20T02:12:11;10.85;;;8.57;;
45434;SDS011;31183;47.404;8.500;2023-05-20T02:14:42;11.82;;;9.25;;
45434;SDS011;31183;47.404;8.500;2023-05-20T02:17:10;10.73;;;8.80;;
45434;SDS011;31183;47.404;8.500;2023-05-20T02:19:42;11.80;;;9.73;;
45434;SDS011;31183;47.404;8.500;2023-05-20T02:22:09;11.90;;;9.02;;
45434;SDS011;31183;47.404;8.500;2023-05-20T02:24:36;11.30;;;8.77;;
45434;SDS011;31183;47.404;8.500;2023-05-20T02:27:03;11.27;;;9.30;;
45434;SDS011;31183;47.404;8.500;2023-05-20T02:29:31;12.25;;;9.88;;
45434;SDS011;31183;47.404;8.500;2023-05-20T02:31:58;11.50;;;10.30;;
45434;SDS011;31183;47.404;8.500;2023-05-20T02:34:24;11.55;;;9.82;;
45434;SDS011;31183;47.404;8.500;2023-05-20T02:36:52;10.52;;;9.18;;
45434;SDS011;31183;47.404;8.500;2023-05-20T02:39:19;21.15;;;16.40;;
45434;SDS011;31183;47.404;8.500;2023-05-20T02:41:46;21.42;;;14.52;;
45434;SDS011;31183;47.404;8.500;2023-05-20T02:44:12;12.90;;;10.52;;
45434;SDS011;31183;47.404;8.500;2023-05-20T02:46:39;11.02;;;9.88;;
45434;SDS011;31183;47.404;8.500;2023-05-20T02:49:06;14.07;;;10.98;;
45434;SDS011;31183;47.404;8.500;2023-05-20T02:51:33;17.10;;;11.48;;
45434;SDS011;31183;47.404;8.500;2023-05-20T02:53:59;16.08;;;12.70;;
45434;SDS011;31183;47.404;8.500;2023-05-20T02:56:26;18.42;;;13.32;;
45434;SDS011;31183;47.404;8.500;2023-05-20T02:58:53;15.55;;;12.57;;
45434;SDS011;31183;47.404;8.500;2023-05-20T03:01:20;12.30;;;10.68;;
45434;SDS011;31183;47.404;8.500;2023-05-20T03:03:47;13.50;;;11.02;;
45434;SDS011;31183;47.404;8.500;2023-05-20T03:06:13;13.00;;;10.23;;
45434;SDS011;31183;47.404;8.500;2023-05-20T03:08:40;11.77;;;10.57;;
45434;SDS011;31183;47.404;8.500;2023-05-20T03:11:07;18.35;;;13.27;;
45434;SDS011;31183;47.404;8.500;2023-05-20T03:13:34;20.45;;;15.43;;
45434;SDS011;31183;47.404;8.500;2023-05-20T03:16:01;16.95;;;14.48;;
45434;SDS011;31183;47.404;8.500;2023-05-20T03:18:28;14.73;;;13.13;;
45434;SDS011;31183;47.404;8.500;2023-05-20T03:20:54;14.68;;;11.88;;
45434;SDS011;31183;47.404;8.500;2023-05-20T03:23:21;10.07;;;9.02;;
45434;SDS011;31183;47.404;8.500;2023-05-20T03:25:48;11.38;;;9.23;;
45434;SDS011;31183;47.404;8.500;2023-05-20T03:28:14;11.20;;;9.35;;
45434;SDS011;31183;47.404;8.500;2023-05-20T03:30:41;11.80;;;9.73;;
45434;SDS011;31183;47.404;8.500;2023-05-20T03:33:08;11.57;;;8.85;;
45434;SDS011;31183;47.404;8.500;2023-05-20T03:35:35;13.90;;;11.15;;
45434;SDS011;31183;47.404;8.500;2023-05-20T03:38:02;12.70;;;11.05;;
45434;SDS011;31183;47.404;8.500;2023-05-20T03:40:29;13.68;;;10.55;;
45434;SDS011;31183;47.404;8.500;2023-05-20T03:42:56;11.10;;;9.93;;
45434;SDS011;31183;47.404;8.500;2023-05-20T03:45:22;12.95;;;10.70;;
45434;SDS011;31183;47.404;8.500;2023-05-20T03:47:49;10.77;;;9.70;;
45434;SDS011;31183;47.404;8.500;2023-05-20T03:50:16;10.85;;;9.85;;
45434;SDS011;31183;47.404;8.500;2023-05-20T03:52:43;13.75;;;10.20;;
45434;SDS011;31183;47.404;8.500;2023-05-20T03:55:10;14.13;;;10.13;;
45434;SDS011;31183;47.404;8.500;2023-05-20T03:57:37;13.10;;;11.18;;
45434;SDS011;31183;47.404;8.500;2023-05-20T04:00:03;11.38;;;10.15;;
45434;SDS011;31183;47.404;8.500;2023-05-20T04:02:36;11.40;;;10.25;;
45434;SDS011;31183;47.404;8.500;2023-05-20T04:05:03;15.15;;;12.50;;
45434;SDS011;31183;47.404;8.500;2023-05-20T04:07:30;13.98;;;10.75;;
45434;SDS011;31183;47.404;8.500;2023-05-20T04:09:57;12.32;;;10.13;;
45434;SDS011;31183;47.404;8.500;2023-05-20T04:12:24;11.50;;;9.65;;
45434;SDS011;31183;47.404;8.500;2023-05-20T04:17:23;10.73;;;9.35;;
45434;SDS011;31183;47.404;8.500;2023-05-20T04:19:49;14.13;;;9.93;;
45434;SDS011;31183;47.404;8.500;2023-05-20T04:22:16;15.52;;;9.75;;
45434;SDS011;31183;47.404;8.500;2023-05-20T04:24:43;10.80;;;9.70;;
45434;SDS011;31183;47.404;8.500;2023-05-20T04:27:11;14.18;;;10.60;;
45434;SDS011;31183;47.404;8.500;2023-05-20T04:29:37;13.25;;;10.73;;
45434;SDS011;31183;47.404;8.500;2023-05-20T04:32:06;15.80;;;11.57;;
45434;SDS011;31183;47.404;8.500;2023-05-20T04:34:36;12.35;;;10.13;;
45434;SDS011;31183;47.404;8.500;2023-05-20T04:37:03;15.68;;;11.80;;
45434;SDS011;31183;47.404;8.500;2023-05-20T04:39:33;17.70;;;11.55;;
45434;SDS011;31183;47.404;8.500;2023-05-20T04:42:00;12.50;;;10.80;;
45434;SDS011;31183;47.404;8.500;2023-05-20T04:44:28;16.05;;;11.70;;
45434;SDS011;31183;47.404;8.500;2023-05-20T04:46:55;12.45;;;11.18;;
45434;SDS011;31183;47.404;8.500;2023-05-20T04:49:25;13.37;;;11.83;;
45434;SDS011;31183;47.404;8.500;2023-05-20T04:51:52;12.52;;;11.32;;
45434;SDS011;31183;47.404;8.500;2023-05-20T04:54:20;12.57;;;10.52;;
45434;SDS011;31183;47.404;8.500;2023-05-20T04:56:47;13.43;;;11.40;;
45434;SDS011;31183;47.404;8.500;2023-05-20T04:59:13;13.55;;;11.65;;
45434;SDS011;31183;47.404;8.500;2023-05-20T05:01:40;11.43;;;10.18;;
45434;SDS011;31183;47.404;8.500;2023-05-20T05:04:07;12.27;;;10.43;;
45434;SDS011;31183;47.404;8.500;2023-05-20T05:06:33;14.93;;;11.15;;
45434;SDS011;31183;47.404;8.500;2023-05-20T05:09:01;13.75;;;11.43;;
45434;SDS011;31183;47.404;8.500;2023-05-20T05:11:27;14.13;;;11.90;;
45434;SDS011;31183;47.404;8.500;2023-05-20T05:13:54;13.15;;;11.30;;
45434;SDS011;31183;47.404;8.500;2023-05-20T05:16:21;13.30;;;10.65;;
45434;SDS011;31183;47.404;8.500;2023-05-20T05:18:48;13.15;;;11.75;;
45434;SDS011;31183;47.404;8.500;2023-05-20T05:21:15;12.98;;;11.68;;
45434;SDS011;31183;47.404;8.500;2023-05-20T05:23:42;13.23;;;11.80;;
45434;SDS011;31183;47.404;8.500;2023-05-20T05:26:08;13.10;;;11.82;;
45434;SDS011;31183;47.404;8.500;2023-05-20T05:28:35;14.48;;;11.60;;
45434;SDS011;31183;47.404;8.500;2023-05-20T05:31:02;13.65;;;11.85;;
45434;SDS011;31183;47.404;8.500;2023-05-20T05:33:28;19.83;;;13.32;;
45434;SDS011;31183;47.404;8.500;2023-05-20T05:35:55;16.75;;;12.75;;
45434;SDS011;31183;47.404;8.500;2023-05-20T05:38:24;12.73;;;11.50;;
45434;SDS011;31183;47.404;8.500;2023-05-20T05:40:51;13.85;;;11.73;;
45434;SDS011;31183;47.404;8.500;2023-05-20T05:43:18;13.07;;;11.68;;
45434;SDS011;31183;47.404;8.500;2023-05-20T05:45:45;17.35;;;13.15;;
45434;SDS011;31183;47.404;8.500;2023-05-20T05:48:12;16.75;;;14.60;;
45434;SDS011;31183;47.404;8.500;2023-05-20T05:50:41;16.83;;;13.35;;
45434;SDS011;31183;47.404;8.500;2023-05-20T05:53:09;16.05;;;14.35;;
45434;SDS011;31183;47.404;8.500;2023-05-20T05:55:36;18.20;;;12.88;;
45434;SDS011;31183;47.404;8.500;2023-05-20T05:58:02;21.00;;;15.10;;
45434;SDS011;31183;47.404;8.500;2023-05-20T06:00:29;15.23;;;13.15;;
45434;SDS011;31183;47.404;8.500;2023-05-20T06:02:56;13.98;;;11.93;;
45434;SDS011;31183;47.404;8.500;2023-05-20T06:05:23;13.82;;;11.90;;
45434;SDS011;31183;47.404;8.500;2023-05-20T06:07:51;16.88;;;13.07;;
45434;SDS011;31183;47.404;8.500;2023-05-20T06:10:18;11.95;;;10.48;;
45434;SDS011;31183;47.404;8.500;2023-05-20T06:12:45;15.10;;;11.60;;
45434;SDS011;31183;47.404;8.500;2023-05-20T06:15:11;15.95;;;12.23;;
45434;SDS011;31183;47.404;8.500;2023-05-20T06:17:38;15.10;;;12.05;;
45434;SDS011;31183;47.404;8.500;2023-05-20T06:20:05;14.85;;;13.23;;
45434;SDS011;31183;47.404;8.500;2023-05-20T06:22:32;14.55;;;10.90;;
45434;SDS011;31183;47.404;8.500;2023-05-20T06:24:59;15.15;;;13.05;;
45434;SDS011;31183;47.404;8.500;2023-05-20T06:27:27;17.88;;;14.80;;
45434;SDS011;31183;47.404;8.500;2023-05-20T06:29:54;13.02;;;11.65;;
45434;SDS011;31183;47.404;8.500;2023-05-20T06:32:20;15.13;;;12.73;;
45434;SDS011;31183;47.404;8.500;2023-05-20T06:34:47;14.45;;;12.95;;
45434;SDS011;31183;47.404;8.500;2023-05-20T06:37:13;16.27;;;12.85;;
45434;SDS011;31183;47.404;8.500;2023-05-20T06:39:40;15.75;;;11.93;;
45434;SDS011;31183;47.404;8.500;2023-05-20T06:42:07;14.80;;;12.63;;
45434;SDS011;31183;47.404;8.500;2023-05-20T06:44:33;17.65;;;13.90;;
45434;SDS011;31183;47.404;8.500;2023-05-20T06:47:00;19.00;;;14.07;;
45434;SDS011;31183;47.404;8.500;2023-05-20T06:49:26;15.07;;;13.57;;
45434;SDS011;31183;47.404;8.500;2023-05-20T06:51:53;14.60;;;13.20;;
45434;SDS011;31183;47.404;8.500;2023-05-20T06:54:20;16.42;;;14.15;;
45434;SDS011;31183;47.404;8.500;2023-05-20T06:56:47;17.35;;;14.25;;
45434;SDS011;31183;47.404;8.500;2023-05-20T06:59:13;16.30;;;14.35;;
45434;SDS011;31183;47.404;8.500;2023-05-20T07:01:40;16.75;;;15.02;;
45434;SDS011;31183;47.404;8.500;2023-05-20T07:04:07;18.45;;;15.00;;
45434;SDS011;31183;47.404;8.500;2023-05-20T07:06:34;16.23;;;14.45;;
45434;SDS011;31183;47.404;8.500;2023-05-20T07:09:00;17.10;;;15.30;;
45434;SDS011;31183;47.404;8.500;2023-05-20T07:11:27;15.88;;;14.15;;
45434;SDS011;31183;47.404;8.500;2023-05-20T07:13:54;20.02;;;15.60;;
45434;SDS011;31183;47.404;8.500;2023-05-20T07:16:20;21.15;;;15.63;;
45434;SDS011;31183;47.404;8.500;2023-05-20T07:18:47;19.13;;;14.63;;
45434;SDS011;31183;47.404;8.500;2023-05-20T07:21:14;21.42;;;16.17;;
45434;SDS011;31183;47.404;8.500;2023-05-20T07:23:40;20.88;;;16.55;;
45434;SDS011;31183;47.404;8.500;2023-05-20T07:26:07;17.60;;;15.35;;
45434;SDS011;31183;47.404;8.500;2023-05-20T07:28:33;15.60;;;14.00;;
45434;SDS011;31183;47.404;8.500;2023-05-20T07:31:01;18.90;;;15.75;;
45434;SDS011;31183;47.404;8.500;2023-05-20T07:33:28;17.38;;;14.85;;
45434;SDS011;31183;47.404;8.500;2023-05-20T07:35:55;19.20;;;13.93;;
45434;SDS011;31183;47.404;8.500;2023-05-20T07:38:22;17.70;;;15.85;;
45434;SDS011;31183;47.404;8.500;2023-05-20T07:40:48;22.10;;;16.30;;
45434;SDS011;31183;47.404;8.500;2023-05-20T07:43:15;18.13;;;15.93;;
45434;SDS011;31183;47.404;8.500;2023-05-20T07:45:41;19.25;;;16.52;;
45434;SDS011;31183;47.404;8.500;2023-05-20T07:48:08;19.27;;;15.27;;
45434;SDS011;31183;47.404;8.500;2023-05-20T07:50:35;17.20;;;14.73;;
45434;SDS011;31183;47.404;8.500;2023-05-20T07:53:02;18.52;;;15.38;;
45434;SDS011;31183;47.404;8.500;2023-05-20T07:55:29;17.08;;;15.13;;
45434;SDS011;31183;47.404;8.500;2023-05-20T07:57:56;15.95;;;14.25;;
45434;SDS011;31183;47.404;8.500;2023-05-20T08:00:23;18.58;;;15.52;;
45434;SDS011;31183;47.404;8.500;2023-05-20T08:02:49;16.08;;;14.38;;
45434;SDS011;31183;47.404;8.500;2023-05-20T08:05:17;15.30;;;13.70;;
45434;SDS011;31183;47.404;8.500;2023-05-20T08:07:43;17.38;;;15.57;;
45434;SDS011;31183;47.404;8.500;2023-05-20T08:10:10;16.25;;;14.55;;
45434;SDS011;31183;47.404;8.500;2023-05-20T08:12:37;17.17;;;14.80;;
45434;SDS011;31183;47.404;8.500;2023-05-20T08:15:04;17.63;;;14.23;;
45434;SDS011;31183;47.404;8.500;2023-05-20T08:17:31;17.20;;;14.35;;
45434;SDS011;31183;47.404;8.500;2023-05-20T08:19:58;21.25;;;15.30;;
45434;SDS011;31183;47.404;8.500;2023-05-20T08:22:25;20.23;;;15.63;;
45434;SDS011;31183;47.404;8.500;2023-05-20T08:24:51;18.50;;;15.30;;
45434;SDS011;31183;47.404;8.500;2023-05-20T08:27:18;16.73;;;14.45;;
45434;SDS011;31183;47.404;8.500;2023-05-20T08:29:45;16.10;;;14.27;;
45434;SDS011;31183;47.404;8.500;2023-05-20T08:32:11;18.15;;;14.18;;
45434;SDS011;31183;47.404;8.500;2023-05-20T08:34:38;18.25;;;15.00;;
45434;SDS011;31183;47.404;8.500;2023-05-20T08:37:05;19.17;;;14.57;;
45434;SDS011;31183;47.404;8.500;2023-05-20T08:39:31;17.00;;;15.25;;
45434;SDS011;31183;47.404;8.500;2023-05-20T08:41:58;16.33;;;14.43;;
45434;SDS011;31183;47.404;8.500;2023-05-20T08:44:25;18.60;;;14.40;;
45434;SDS011;31183;47.404;8.500;2023-05-20T08:46:54;18.35;;;15.23;;
45434;SDS011;31183;47.404;8.500;2023-05-20T08:49:22;17.02;;;14.25;;
45434;SDS011;31183;47.404;8.500;2023-05-20T08:51:48;15.30;;;13.65;;
45434;SDS011;31183;47.404;8.500;2023-05-20T08:54:15;16.20;;;14.63;;
45434;SDS011;31183;47.404;8.500;2023-05-20T08:56:45;16.83;;;14.57;;
45434;SDS011;31183;47.404;8.500;2023-05-20T08:59:12;18.77;;;14.55;;
45434;SDS011;31183;47.404;8.500;2023-05-20T09:01:40;20.30;;;15.35;;
45434;SDS011;31183;47.404;8.500;2023-05-20T09:04:11;16.75;;;14.60;;
45434;SDS011;31183;47.404;8.500;2023-05-20T09:06:44;18.15;;;15.80;;
45434;SDS011;31183;47.404;8.500;2023-05-20T09:09:12;17.10;;;13.05;;
45434;SDS011;31183;47.404;8.500;2023-05-20T09:11:39;17.00;;;14.63;;
45434;SDS011;31183;47.404;8.500;2023-05-20T09:14:06;16.15;;;14.23;;
45434;SDS011;31183;47.404;8.500;2023-05-20T09:16:33;16.05;;;13.30;;
45434;SDS011;31183;47.404;8.500;2023-05-20T09:19:00;16.55;;;13.30;;
45434;SDS011;31183;47.404;8.500;2023-05-20T09:21:27;15.95;;;14.25;;
45434;SDS011;31183;47.404;8.500;2023-05-20T09:23:55;15.98;;;13.85;;
45434;SDS011;31183;47.404;8.500;2023-05-20T09:26:28;15.32;;;13.73;;
45434;SDS011;31183;47.404;8.500;2023-05-20T09:28:58;16.55;;;14.82;;
45434;SDS011;31183;47.404;8.500;2023-05-20T09:31:25;16.73;;;14.15;;
45434;SDS011;31183;47.404;8.500;2023-05-20T09:34:03;16.38;;;13.73;;
45434;SDS011;31183;47.404;8.500;2023-05-20T09:36:30;16.35;;;13.75;;
45434;SDS011;31183;47.404;8.500;2023-05-20T09:39:00;14.52;;;12.80;;
45434;SDS011;31183;47.404;8.500;2023-05-20T09:41:32;15.65;;;13.80;;
45434;SDS011;31183;47.404;8.500;2023-05-20T09:44:03;15.00;;;13.20;;
45434;SDS011;31183;47.404;8.500;2023-05-20T09:46:32;15.68;;;14.02;;
45434;SDS011;31183;47.404;8.500;2023-05-20T09:48:59;16.08;;;12.90;;
45434;SDS011;31183;47.404;8.500;2023-05-20T09:51:27;19.98;;;17.50;;
45434;SDS011;31183;47.404;8.500;2023-05-20T09:53:54;17.17;;;15.38;;
45434;SDS011;31183;47.404;8.500;2023-05-20T09:56:22;15.75;;;14.07;;
45434;SDS011;31183;47.404;8.500;2023-05-20T09:58:50;15.73;;;14.00;;
45434;SDS011;31183;47.404;8.500;2023-05-20T10:01:23;20.02;;;15.77;;
45434;SDS011;31183;47.404;8.500;2023-05-20T10:03:51;17.27;;;15.48;;
45434;SDS011;31183;47.404;8.500;2023-05-20T10:06:32;16.92;;;15.23;;
45434;SDS011;31183;47.404;8.500;2023-05-20T10:15:03;16.10;;;14.35;;
45434;SDS011;31183;47.404;8.500;2023-05-20T10:20:26;15.80;;;14.10;;
45434;SDS011;31183;47.404;8.500;2023-05-20T10:22:56;14.93;;;13.38;;
45434;SDS011;31183;47.404;8.500;2023-05-20T10:25:24;15.60;;;13.98;;
45434;SDS011;31183;47.404;8.500;2023-05-20T10:30:33;16.10;;;13.00;;
45434;SDS011;31183;47.404;8.500;2023-05-20T10:33:04;16.65;;;14.95;;
45434;SDS011;31183;47.404;8.500;2023-05-20T10:35:32;15.60;;;12.88;;
45434;SDS011;31183;47.404;8.500;2023-05-20T10:38:06;15.00;;;13.35;;
45434;SDS011;31183;47.404;8.500;2023-05-20T10:40:37;16.05;;;13.38;;
45434;SDS011;31183;47.404;8.500;2023-05-20T10:43:11;15.13;;;13.63;;
45434;SDS011;31183;47.404;8.500;2023-05-20T10:45:49;16.08;;;14.35;;
45434;SDS011;31183;47.404;8.500;2023-05-20T10:55:59;14.80;;;13.32;;
45434;SDS011;31183;47.404;8.500;2023-05-20T10:58:26;14.52;;;13.02;;
45434;SDS011;31183;47.404;8.500;2023-05-20T11:00:53;17.05;;;14.27;;
45434;SDS011;31183;47.404;8.500;2023-05-20T11:03:21;15.07;;;13.52;;
45434;SDS011;31183;47.404;8.500;2023-05-20T11:05:48;15.00;;;13.40;;
45434;SDS011;31183;47.404;8.500;2023-05-20T11:08:16;16.17;;;14.23;;
45434;SDS011;31183;47.404;8.500;2023-05-20T11:10:57;13.25;;;11.95;;
45434;SDS011;31183;47.404;8.500;2023-05-20T11:13:24;15.52;;;13.70;;
45434;SDS011;31183;47.404;8.500;2023-05-20T11:15:51;14.68;;;12.82;;
45434;SDS011;31183;47.404;8.500;2023-05-20T11:18:18;14.43;;;12.52;;
45434;SDS011;31183;47.404;8.500;2023-05-20T11:20:45;15.20;;;13.52;;
45434;SDS011;31183;47.404;8.500;2023-05-20T11:23:12;12.68;;;11.38;;
45434;SDS011;31183;47.404;8.500;2023-05-20T11:25:40;16.38;;;13.35;;
45434;SDS011;31183;47.404;8.500;2023-05-20T11:28:16;15.00;;;13.60;;
45434;SDS011;31183;47.404;8.500;2023-05-20T11:30:45;13.70;;;12.25;;
45434;SDS011;31183;47.404;8.500;2023-05-20T11:33:12;14.30;;;12.75;;
45434;SDS011;31183;47.404;8.500;2023-05-20T11:35:44;15.02;;;11.82;;
45434;SDS011;31183;47.404;8.500;2023-05-20T11:38:15;15.98;;;12.88;;
45434;SDS011;31183;47.404;8.500;2023-05-20T11:40:46;13.95;;;12.55;;
45434;SDS011;31183;47.404;8.500;2023-05-20T11:43:22;13.82;;;12.40;;
45434;SDS011;31183;47.404;8.500;2023-05-20T11:48:20;13.43;;;12.00;;
45434;SDS011;31183;47.404;8.500;2023-05-20T11:50:47;15.57;;;13.15;;
45434;SDS011;31183;47.404;8.500;2023-05-20T11:53:14;13.95;;;11.90;;
45434;SDS011;31183;47.404;8.500;2023-05-20T11:58:14;15.30;;;11.80;;
45434;SDS011;31183;47.404;8.500;2023-05-20T12:00:56;13.40;;;12.00;;
45434;SDS011;31183;47.404;8.500;2023-05-20T12:03:38;12.38;;;10.90;;
45434;SDS011;31183;47.404;8.500;2023-05-20T12:06:05;13.52;;;11.65;;
45434;SDS011;31183;47.404;8.500;2023-05-20T12:08:32;13.88;;;11.98;;
45434;SDS011;31183;47.404;8.500;2023-05-20T12:10:59;13.18;;;11.93;;
45434;SDS011;31183;47.404;8.500;2023-05-20T12:13:26;12.55;;;11.07;;
45434;SDS011;31183;47.404;8.500;2023-05-20T12:15:52;13.70;;;12.30;;
45434;SDS011;31183;47.404;8.500;2023-05-20T12:18:20;17.75;;;12.73;;
45434;SDS011;31183;47.404;8.500;2023-05-20T12:20:47;12.90;;;11.35;;
45434;SDS011;31183;47.404;8.500;2023-05-20T12:23:14;11.80;;;10.55;;
45434;SDS011;31183;47.404;8.500;2023-05-20T12:25:41;13.95;;;12.55;;
45434;SDS011;31183;47.404;8.500;2023-05-20T12:28:07;13.52;;;11.27;;
45434;SDS011;31183;47.404;8.500;2023-05-20T12:30:34;14.07;;;12.38;;
45434;SDS011;31183;47.404;8.500;2023-05-20T12:33:01;13.52;;;12.13;;
45434;SDS011;31183;47.404;8.500;2023-05-20T12:38:07;13.65;;;11.10;;
45434;SDS011;31183;47.404;8.500;2023-05-20T12:40:35;13.43;;;12.13;;
45434;SDS011;31183;47.404;8.500;2023-05-20T12:43:04;14.02;;;11.20;;
45434;SDS011;31183;47.404;8.500;2023-05-20T12:45:31;19.13;;;12.48;;
45434;SDS011;31183;47.404;8.500;2023-05-20T12:47:58;13.90;;;11.68;;
45434;SDS011;31183;47.404;8.500;2023-05-20T12:50:25;14.52;;;11.85;;
45434;SDS011;31183;47.404;8.500;2023-05-20T12:52:52;12.43;;;11.15;;
45434;SDS011;31183;47.404;8.500;2023-05-20T12:55:19;11.98;;;10.70;;
45434;SDS011;31183;47.404;8.500;2023-05-20T12:57:46;11.13;;;10.02;;
45434;SDS011;31183;47.404;8.500;2023-05-20T13:00:13;11.27;;;10.13;;
45434;SDS011;31183;47.404;8.500;2023-05-20T13:02:41;10.23;;;9.25;;
45434;SDS011;31183;47.404;8.500;2023-05-20T13:05:09;10.70;;;9.60;;
45434;SDS011;31183;47.404;8.500;2023-05-20T13:07:36;11.05;;;9.95;;
45434;SDS011;31183;47.404;8.500;2023-05-20T13:10:03;12.75;;;10.73;;
45434;SDS011;31183;47.404;8.500;2023-05-20T13:12:31;12.73;;;10.65;;
45434;SDS011;31183;47.404;8.500;2023-05-20T13:14:58;12.30;;;10.15;;
45434;SDS011;31183;47.404;8.500;2023-05-20T13:17:25;11.85;;;10.55;;
45434;SDS011;31183;47.404;8.500;2023-05-20T13:19:53;11.02;;;9.93;;
45434;SDS011;31183;47.404;8.500;2023-05-20T13:22:20;12.35;;;11.07;;
45434;SDS011;31183;47.404;8.500;2023-05-20T13:24:47;12.18;;;10.48;;
45434;SDS011;31183;47.404;8.500;2023-05-20T13:27:14;12.73;;;11.40;;
45434;SDS011;31183;47.404;8.500;2023-05-20T13:29:40;10.07;;;9.05;;
45434;SDS011;31183;47.404;8.500;2023-05-20T13:32:08;10.75;;;9.75;;
45434;SDS011;31183;47.404;8.500;2023-05-20T13:34:35;11.68;;;10.48;;
45434;SDS011;31183;47.404;8.500;2023-05-20T13:37:03;13.38;;;10.68;;
45434;SDS011;31183;47.404;8.500;2023-05-20T13:39:30;10.88;;;9.77;;
45434;SDS011;31183;47.404;8.500;2023-05-20T13:42:01;10.60;;;9.50;;
45434;SDS011;31183;47.404;8.500;2023-05-20T13:44:28;11.68;;;10.45;;
45434;SDS011;31183;47.404;8.500;2023-05-20T13:46:57;10.50;;;9.48;;
45434;SDS011;31183;47.404;8.500;2023-05-20T13:49:23;10.27;;;9.18;;
45434;SDS011;31183;47.404;8.500;2023-05-20T13:51:50;10.13;;;9.23;;
45434;SDS011;31183;47.404;8.500;2023-05-20T13:54:19;10.07;;;9.07;;
45434;SDS011;31183;47.404;8.500;2023-05-20T13:56:46;10.40;;;9.05;;
45434;SDS011;31183;47.404;8.500;2023-05-20T13:59:13;11.75;;;10.65;;
45434;SDS011;31183;47.404;8.500;2023-05-20T14:01:40;11.45;;;10.25;;
45434;SDS011;31183;47.404;8.500;2023-05-20T14:04:11;11.43;;;10.32;;
45434;SDS011;31183;47.404;8.500;2023-05-20T14:06:38;11.18;;;10.18;;
45434;SDS011;31183;47.404;8.500;2023-05-20T14:09:05;12.30;;;10.85;;
45434;SDS011;31183;47.404;8.500;2023-05-20T14:11:34;11.85;;;10.48;;
45434;SDS011;31183;47.404;8.500;2023-05-20T14:14:00;13.40;;;12.10;;
45434;SDS011;31183;47.404;8.500;2023-05-20T14:16:27;10.05;;;9.07;;
45434;SDS011;31183;47.404;8.500;2023-05-20T14:18:54;11.38;;;10.27;;
45434;SDS011;31183;47.404;8.500;2023-05-20T14:21:21;11.57;;;10.38;;
45434;SDS011;31183;47.404;8.500;2023-05-20T14:23:47;10.50;;;9.57;;
45434;SDS011;31183;47.404;8.500;2023-05-20T14:26:14;10.32;;;9.23;;
45434;SDS011;31183;47.404;8.500;2023-05-20T14:28:41;9.85;;;8.85;;
45434;SDS011;31183;47.404;8.500;2023-05-20T14:31:07;11.45;;;10.10;;
45434;SDS011;31183;47.404;8.500;2023-05-20T14:33:35;11.77;;;10.13;;
45434;SDS011;31183;47.404;8.500;2023-05-20T14:36:02;12.25;;;11.00;;
45434;SDS011;31183;47.404;8.500;2023-05-20T14:38:29;12.75;;;10.55;;
45434;SDS011;31183;47.404;8.500;2023-05-20T14:40:56;10.50;;;9.40;;
45434;SDS011;31183;47.404;8.500;2023-05-20T14:43:22;12.13;;;10.82;;
45434;SDS011;31183;47.404;8.500;2023-05-20T14:45:49;12.05;;;10.77;;
45434;SDS011;31183;47.404;8.500;2023-05-20T14:48:16;9.70;;;8.80;;
45434;SDS011;31183;47.404;8.500;2023-05-20T14:50:43;10.93;;;9.82;;
45434;SDS011;31183;47.404;8.500;2023-05-20T14:53:10;16.08;;;11.27;;
45434;SDS011;31183;47.404;8.500;2023-05-20T14:55:36;10.43;;;9.45;;
45434;SDS011;31183;47.404;8.500;2023-05-20T14:58:03;10.07;;;9.07;;